Time;durP1;ratioP1;P1;durP2;ratioP2;P2;SDS_P1;SDS_P2;PMS_P1;PMS_P2;Temp;Humidity;BMP_temperature;BMP_pressure;BME280_temperature;BME280_humidity;BME280_pressure;Samples;Min_cycle;Max_cycle;Signal;HPM_P1;HPM_P2
2021/10/20 00:00:53;;;;;;;7.72;5.80;;;14.80;99.90;;;;;;6214748;23;19996;-90
2021/10/20 00:03:19;;;;;;;12.27;5.93;;;14.80;99.90;;;;;;6214403;23;20000;-91
2021/10/20 00:05:44;;;;;;;8.25;5.45;;;14.80;99.90;;;;;;6215751;23;20003;-90
2021/10/20 00:08:10;;;;;;;7.03;5.60;;;14.80;99.90;;;;;;6214739;23;20419;-90
2021/10/20 00:10:37;;;;;;;6.35;5.30;;;14.80;99.90;;;;;;6215516;23;20004;-89
2021/10/20 00:13:04;;;;;;;6.25;4.68;;;14.70;99.90;;;;;;6241970;23;20003;-90
2021/10/20 00:15:30;;;;;;;6.72;4.90;;;14.70;99.90;;;;;;6214892;23;20083;-89
2021/10/20 00:17:56;;;;;;;7.60;5.55;;;14.60;99.90;;;;;;6242088;23;20083;-89
2021/10/20 00:20:24;;;;;;;7.63;5.75;;;14.60;99.90;;;;;;6241861;23;20344;-90
2021/10/20 00:22:53;;;;;;;6.78;5.65;;;14.60;99.90;;;;;;6191252;23;20011;-89
2021/10/20 00:25:19;;;;;;;7.45;5.90;;;14.60;99.90;;;;;;6215426;23;20083;-90
2021/10/20 00:27:46;;;;;;;7.50;5.55;;;14.60;99.90;;;;;;6214405;23;20012;-90
2021/10/20 00:30:16;;;;;;;6.13;5.10;;;14.60;99.90;;;;;;6214774;23;20011;-89
2021/10/20 00:32:42;;;;;;;7.90;4.80;;;14.60;99.90;;;;;;6215108;23;20000;-90
2021/10/20 00:35:09;;;;;;;9.52;5.45;;;14.60;99.90;;;;;;6241322;23;20044;-89
2021/10/20 00:37:35;;;;;;;8.35;5.85;;;14.60;99.90;;;;;;6215225;23;20003;-89
2021/10/20 00:40:01;;;;;;;8.13;5.75;;;14.60;99.90;;;;;;6216293;23;20083;-90
2021/10/20 00:42:28;;;;;;;7.00;5.40;;;14.60;99.90;;;;;;6216609;23;20000;-89
2021/10/20 00:45:00;;;;;;;5.80;4.65;;;14.60;99.90;;;;;;6215586;23;19996;-89
2021/10/20 00:47:27;;;;;;;7.82;5.13;;;14.60;99.90;;;;;;6215293;23;20004;-88
2021/10/20 00:49:54;;;;;;;5.75;4.57;;;14.60;99.90;;;;;;6215307;23;20001;-89
2021/10/20 00:52:22;;;;;;;5.80;5.00;;;14.60;99.90;;;;;;6215048;23;20035;-89
2021/10/20 00:54:51;;;;;;;5.80;4.93;;;14.60;99.90;;;;;;6242228;23;20062;-89
2021/10/20 00:57:18;;;;;;;6.28;4.78;;;14.60;99.90;;;;;;6244133;23;20015;-89
2021/10/20 00:59:44;;;;;;;5.78;4.93;;;14.70;99.90;;;;;;6217691;23;19996;-89
2021/10/20 01:02:10;;;;;;;5.90;4.78;;;14.70;99.90;;;;;;6217672;23;20007;-90
2021/10/20 01:04:37;;;;;;;6.22;4.63;;;14.70;99.90;;;;;;6243635;23;20004;-90
2021/10/20 01:07:04;;;;;;;6.22;4.68;;;14.70;99.90;;;;;;6216638;23;20041;-89
2021/10/20 01:09:32;;;;;;;6.75;4.50;;;14.70;99.90;;;;;;6217145;23;20011;-89
2021/10/20 01:11:58;;;;;;;6.40;4.90;;;14.70;99.90;;;;;;6217549;23;20012;-91
2021/10/20 01:14:25;;;;;;;5.97;4.50;;;14.70;99.90;;;;;;6218787;23;20274;-88
2021/10/20 01:16:51;;;;;;;6.20;4.57;;;14.80;99.90;;;;;;6219091;23;20004;-89
2021/10/20 01:19:20;;;;;;;5.50;4.10;;;14.80;99.90;;;;;;6216125;23;20429;-89
2021/10/20 01:21:46;;;;;;;5.75;4.13;;;14.80;99.90;;;;;;6216765;23;20353;-89
2021/10/20 01:24:12;;;;;;;5.57;4.28;;;14.80;99.90;;;;;;6216890;23;20016;-89
2021/10/20 01:26:37;;;;;;;6.15;4.43;;;14.80;99.90;;;;;;6243618;23;20028;-90
2021/10/20 01:29:03;;;;;;;6.20;4.22;;;14.80;99.90;;;;;;6216240;23;19992;-88
2021/10/20 01:31:29;;;;;;;6.40;4.82;;;14.80;99.90;;;;;;6216133;23;19996;-88
2021/10/20 01:33:55;;;;;;;6.18;4.65;;;14.90;99.90;;;;;;6219223;23;20300;-88
2021/10/20 01:36:21;;;;;;;7.07;4.30;;;14.90;99.90;;;;;;6221379;23;20015;-89
2021/10/20 01:38:50;;;;;;;6.10;4.55;;;14.90;99.90;;;;;;6221847;23;20348;-89
2021/10/20 01:41:16;;;;;;;5.72;4.45;;;15.00;99.90;;;;;;6221697;23;20051;-90
2021/10/20 01:43:47;;;;;;;6.78;4.40;;;15.00;99.90;;;;;;6247955;23;20424;-88
2021/10/20 01:46:21;;;;;;;6.20;4.55;;;15.00;99.90;;;;;;6221926;23;20000;-88
2021/10/20 01:48:48;;;;;;;7.13;4.70;;;15.10;99.90;;;;;;6221827;23;20024;-88
2021/10/20 01:51:15;;;;;;;6.18;4.55;;;15.10;99.90;;;;;;6248233;23;20071;-89
2021/10/20 01:53:41;;;;;;;4.93;4.05;;;15.10;99.90;;;;;;6221096;23;20050;-90
2021/10/20 01:56:07;;;;;;;5.28;4.18;;;15.10;99.90;;;;;;6194742;23;20011;-90
2021/10/20 01:58:33;;;;;;;7.13;4.55;;;15.20;99.90;;;;;;6219796;23;20000;-88
2021/10/20 02:00:59;;;;;;;6.78;5.13;;;15.10;99.90;;;;;;6219439;23;20050;-89
2021/10/20 02:03:26;;;;;;;7.38;4.80;;;15.20;99.90;;;;;;6219195;23;20412;-90
2021/10/20 02:05:54;;;;;;;5.05;3.75;;;15.20;99.90;;;;;;6220272;23;20440;-89
2021/10/20 02:08:21;;;;;;;7.65;4.25;;;15.20;99.90;;;;;;6220718;23;20000;-89
2021/10/20 02:10:47;;;;;;;7.55;4.57;;;15.30;99.90;;;;;;6221274;23;19997;-88
2021/10/20 02:13:12;;;;;;;7.97;5.03;;;15.30;99.90;;;;;;6221378;23;20075;-90
2021/10/20 02:15:38;;;;;;;6.63;4.22;;;15.30;99.90;;;;;;6196039;23;20015;-89
2021/10/20 02:18:04;;;;;;;6.00;4.65;;;15.20;99.90;;;;;;6220909;23;20032;-89
2021/10/20 02:20:29;;;;;;;5.80;3.90;;;15.30;99.90;;;;;;6221566;23;20003;-88
2021/10/20 02:22:55;;;;;;;5.35;3.92;;;15.20;99.90;;;;;;6220700;23;19996;-88
2021/10/20 02:25:22;;;;;;;5.97;4.28;;;15.20;99.90;;;;;;6247489;23;20028;-90
2021/10/20 02:27:49;;;;;;;5.72;4.32;;;15.20;99.90;;;;;;6221325;23;19992;-89
2021/10/20 02:30:16;;;;;;;5.28;4.30;;;15.20;99.90;;;;;;6220928;23;20011;-89
2021/10/20 02:32:42;;;;;;;6.20;4.15;;;15.20;99.90;;;;;;6220857;23;20008;-90
2021/10/20 02:35:09;;;;;;;6.53;4.32;;;15.20;99.90;;;;;;6220616;23;20061;-88
2021/10/20 02:37:35;;;;;;;6.90;4.20;;;15.20;99.90;;;;;;6221250;23;20080;-89
2021/10/20 02:40:02;;;;;;;5.38;4.10;;;15.20;99.90;;;;;;6196304;23;20000;-90
2021/10/20 02:42:28;;;;;;;6.22;4.85;;;15.20;99.90;;;;;;6247858;23;19996;-89
2021/10/20 02:44:54;;;;;;;5.20;3.88;;;15.20;99.90;;;;;;6221341;23;20022;-89
2021/10/20 02:47:19;;;;;;;5.53;3.92;;;15.20;99.90;;;;;;6247573;23;19992;-88
2021/10/20 02:49:47;;;;;;;5.50;4.00;;;15.10;99.90;;;;;;6220766;23;20274;-88
2021/10/20 02:52:13;;;;;;;5.45;4.18;;;15.20;99.90;;;;;;6221311;23;20034;-89
2021/10/20 02:54:40;;;;;;;5.25;4.00;;;15.10;99.90;;;;;;6221043;23;20008;-89
2021/10/20 02:57:06;;;;;;;7.75;3.80;;;15.10;99.90;;;;;;6221435;23;20000;-89
2021/10/20 02:59:32;;;;;;;6.18;4.50;;;15.10;99.90;;;;;;6220338;23;20470;-89
2021/10/20 03:01:58;;;;;;;6.43;4.55;;;15.10;99.90;;;;;;6247864;23;19993;-89
2021/10/20 03:04:23;;;;;;;5.57;4.10;;;15.00;99.90;;;;;;6195928;23;20008;-89
2021/10/20 03:06:49;;;;;;;7.07;4.40;;;15.10;99.90;;;;;;6220385;23;19997;-89
2021/10/20 03:09:15;;;;;;;6.68;3.75;;;15.00;99.90;;;;;;6219612;23;20000;-90
2021/10/20 03:11:40;;;;;;;5.97;4.13;;;15.00;99.90;;;;;;6220770;23;20083;-89
2021/10/20 03:14:06;;;;;;;5.28;4.10;;;15.00;99.90;;;;;;6220167;23;20324;-89
2021/10/20 03:16:33;;;;;;;6.93;4.68;;;15.00;99.90;;;;;;6220624;23;20032;-89
2021/10/20 03:18:59;;;;;;;6.57;4.10;;;15.00;99.90;;;;;;6220955;23;19996;-89
2021/10/20 03:21:25;;;;;;;5.60;4.18;;;15.00;99.90;;;;;;6220923;23;20003;-89
2021/10/20 03:23:50;;;;;;;6.15;4.47;;;15.00;99.90;;;;;;6247780;23;19997;-89
2021/10/20 03:26:16;;;;;;;6.00;3.95;;;15.00;99.90;;;;;;6220313;23;20051;-90
2021/10/20 03:28:42;;;;;;;6.10;4.15;;;15.00;99.90;;;;;;6220751;23;19996;-88
2021/10/20 03:31:07;;;;;;;5.13;4.03;;;14.90;99.90;;;;;;6220433;23;20000;-89
2021/10/20 03:33:34;;;;;;;5.88;4.82;;;15.00;99.90;;;;;;6220824;23;20034;-88
2021/10/20 03:36:01;;;;;;;6.53;4.70;;;15.00;99.90;;;;;;6220018;23;20042;-89
2021/10/20 03:38:26;;;;;;;7.53;5.38;;;15.10;99.90;;;;;;6195662;23;20004;-88
2021/10/20 03:40:52;;;;;;;7.45;4.85;;;15.10;99.90;;;;;;6247262;23;19992;-90
2021/10/20 03:43:19;;;;;;;7.40;5.68;;;15.10;99.90;;;;;;6220824;23;20000;-89
2021/10/20 03:45:45;;;;;;;7.03;5.38;;;15.10;99.90;;;;;;6220843;23;19996;-89
2021/10/20 03:48:11;;;;;;;6.68;5.10;;;15.10;99.90;;;;;;6195519;23;20023;-90
2021/10/20 03:50:37;;;;;;;8.88;4.95;;;15.10;99.90;;;;;;6220672;23;19992;-89
2021/10/20 03:53:03;;;;;;;7.25;4.75;;;15.10;99.90;;;;;;6246836;23;20312;-89
2021/10/20 03:55:28;;;;;;;5.90;4.93;;;15.10;99.90;;;;;;6220245;23;20413;-89
2021/10/20 03:57:55;;;;;;;7.30;5.53;;;15.10;99.90;;;;;;6195492;23;20000;-90
2021/10/20 04:00:21;;;;;;;7.57;5.18;;;15.10;99.90;;;;;;6220478;23;20083;-89
2021/10/20 04:02:47;;;;;;;8.27;5.20;;;15.10;99.90;;;;;;6219758;23;20039;-89
2021/10/20 04:05:15;;;;;;;6.10;4.78;;;15.10;99.90;;;;;;6220134;23;20024;-90
2021/10/20 04:07:41;;;;;;;9.10;5.25;;;15.20;99.90;;;;;;6220561;23;20004;-88
2021/10/20 04:10:14;;;;;;;9.23;6.32;;;15.10;99.90;;;;;;6220682;23;20020;-90
2021/10/20 04:12:40;;;;;;;7.05;5.15;;;15.10;99.90;;;;;;6222296;23;20075;-90
2021/10/20 04:15:07;;;;;;;7.07;4.95;;;15.10;99.90;;;;;;6221108;23;20005;-89
2021/10/20 04:17:33;;;;;;;7.72;5.07;;;15.10;99.90;;;;;;6220613;23;20004;-88
2021/10/20 04:20:00;;;;;;;6.93;5.22;;;15.10;99.90;;;;;;6220314;23;20002;-89
2021/10/20 04:22:25;;;;;;;9.43;5.43;;;15.10;99.90;;;;;;6220197;23;20305;-88
2021/10/20 04:24:51;;;;;;;7.63;5.60;;;15.10;99.90;;;;;;6195321;23;19996;-89
2021/10/20 04:27:17;;;;;;;7.97;5.15;;;15.10;99.90;;;;;;6220644;23;20296;-88
2021/10/20 04:29:43;;;;;;;6.90;5.63;;;15.10;99.90;;;;;;6220229;23;19996;-88
2021/10/20 04:32:08;;;;;;;7.57;5.78;;;15.10;99.90;;;;;;6246837;23;19997;-90
2021/10/20 04:34:34;;;;;;;9.10;5.50;;;15.10;99.90;;;;;;6194595;22;20078;-89
2021/10/20 04:37:00;;;;;;;7.00;5.07;;;15.20;99.90;;;;;;6219557;23;20004;-88
2021/10/20 04:39:27;;;;;;;6.30;5.00;;;15.20;99.90;;;;;;6246455;23;19992;-87
2021/10/20 04:41:52;;;;;;;9.05;5.65;;;15.20;99.90;;;;;;6219765;23;20000;-88
2021/10/20 04:44:18;;;;;;;6.47;5.00;;;15.30;99.90;;;;;;6195192;23;20019;-88
2021/10/20 04:46:44;;;;;;;5.78;4.70;;;15.30;99.90;;;;;;6246917;23;19997;-88
2021/10/20 04:49:10;;;;;;;8.75;4.93;;;15.30;99.90;;;;;;6221386;23;20000;-89
2021/10/20 04:51:41;;;;;;;6.93;5.35;;;15.40;99.90;;;;;;6221906;23;19992;-89
2021/10/20 04:54:14;;;;;;;6.05;4.88;;;15.40;99.90;;;;;;6227393;23;20008;-89
2021/10/20 04:56:40;;;;;;;6.28;4.90;;;15.40;99.90;;;;;;6223449;23;20027;-89
2021/10/20 04:59:05;;;;;;;6.60;5.15;;;15.40;99.90;;;;;;6222398;23;20397;-89
2021/10/20 05:01:31;;;;;;;6.78;4.85;;;15.40;99.90;;;;;;6222203;23;20173;-88
2021/10/20 05:03:57;;;;;;;9.02;5.78;;;15.40;99.90;;;;;;6222067;23;20087;-88
2021/10/20 05:06:22;;;;;;;7.40;5.78;;;15.40;99.90;;;;;;6221838;23;19992;-89
2021/10/20 05:08:49;;;;;;;7.90;6.10;;;15.40;99.90;;;;;;6221949;23;20003;-88
2021/10/20 05:11:15;;;;;;;8.93;5.68;;;15.40;99.90;;;;;;6248448;23;19992;-88
2021/10/20 05:13:41;;;;;;;10.18;6.05;;;15.40;99.90;;;;;;6220966;23;20004;-89
2021/10/20 05:16:07;;;;;;;9.50;6.45;;;15.40;99.90;;;;;;6248622;23;20082;-90
2021/10/20 05:18:32;;;;;;;9.95;6.45;;;15.40;99.90;;;;;;6221630;23;20289;-90
2021/10/20 05:20:58;;;;;;;8.13;6.35;;;15.40;99.90;;;;;;6248294;23;20079;-90
2021/10/20 05:23:24;;;;;;;7.25;5.72;;;15.40;99.90;;;;;;6248427;23;20000;-89
2021/10/20 05:25:50;;;;;;;8.88;6.47;;;15.40;99.90;;;;;;6197077;23;20321;-90
2021/10/20 05:28:15;;;;;;;9.88;5.88;;;15.40;99.90;;;;;;6222669;23;19996;-89
2021/10/20 05:30:43;;;;;;;8.15;6.13;;;15.40;99.90;;;;;;6249712;23;20000;-90
2021/10/20 05:33:08;;;;;;;7.15;5.82;;;15.30;99.90;;;;;;6249474;23;20023;-91
2021/10/20 05:35:34;;;;;;;7.60;5.68;;;15.30;99.90;;;;;;6222256;23;20019;-90
2021/10/20 05:38:00;;;;;;;6.85;5.55;;;15.30;99.90;;;;;;6223679;23;20000;-90
2021/10/20 05:40:27;;;;;;;7.63;5.57;;;15.30;99.90;;;;;;6222025;23;19996;-90
2021/10/20 05:42:53;;;;;;;6.50;5.15;;;15.30;99.90;;;;;;6249262;23;20067;-91
2021/10/20 05:45:20;;;;;;;9.73;5.75;;;15.30;99.90;;;;;;6248470;23;19996;-90
2021/10/20 05:47:46;;;;;;;8.52;6.22;;;15.30;99.90;;;;;;6197063;23;20004;-89
2021/10/20 05:50:14;;;;;;;7.43;5.20;;;15.20;99.90;;;;;;6221165;23;20006;-89
2021/10/20 05:52:43;;;;;;;7.70;5.35;;;15.30;99.90;;;;;;6197107;23;20027;-90
2021/10/20 05:55:14;;;;;;;7.97;5.45;;;15.20;99.90;;;;;;6220960;23;20416;-89
2021/10/20 05:57:40;;;;;;;10.18;5.93;;;15.20;99.90;;;;;;6221740;23;20000;-89
2021/10/20 06:00:10;;;;;;;8.68;6.22;;;15.20;99.90;;;;;;6220571;23;20000;-89
2021/10/20 06:02:41;;;;;;;7.35;5.65;;;15.20;99.90;;;;;;6221580;23;19996;-90
2021/10/20 06:05:09;;;;;;;6.78;5.45;;;15.20;99.90;;;;;;6248628;23;20004;-90
2021/10/20 06:07:51;;;;;;;8.13;5.57;;;15.20;99.90;;;;;;6221654;23;20002;-90
2021/10/20 06:10:22;;;;;;;8.88;5.90;;;15.30;99.90;;;;;;6221830;23;20004;-90
2021/10/20 06:12:47;;;;;;;8.45;6.55;;;15.30;99.90;;;;;;6221662;23;20365;-89
2021/10/20 06:15:15;;;;;;;8.50;6.40;;;15.30;99.90;;;;;;6196468;23;20046;-89
2021/10/20 06:17:41;;;;;;;8.95;6.05;;;15.40;99.90;;;;;;6196884;23;20027;-90
2021/10/20 06:20:09;;;;;;;9.13;5.80;;;15.40;99.90;;;;;;6221936;23;20007;-91
2021/10/20 06:22:41;;;;;;;8.05;5.63;;;15.30;99.90;;;;;;6166532;23;20008;-90
2021/10/20 06:25:08;;;;;;;6.88;5.63;;;15.40;99.90;;;;;;6244911;23;20000;-89
2021/10/20 06:27:34;;;;;;;6.22;4.95;;;15.40;99.90;;;;;;6196818;23;19997;-89
2021/10/20 06:30:01;;;;;;;7.10;5.78;;;15.40;99.90;;;;;;6196445;23;20003;-89
2021/10/20 06:32:27;;;;;;;5.88;4.63;;;15.40;99.90;;;;;;6196534;23;19997;-89
2021/10/20 06:34:54;;;;;;;7.00;4.90;;;15.40;99.90;;;;;;6246382;22;20015;-89
2021/10/20 06:37:20;;;;;;;8.38;5.60;;;15.40;99.90;;;;;;6220946;23;19996;-90
2021/10/20 06:39:46;;;;;;;6.82;5.35;;;15.40;99.90;;;;;;6196129;23;20007;-90
2021/10/20 06:42:13;;;;;;;6.75;5.68;;;15.40;99.90;;;;;;6195663;23;20008;-89
2021/10/20 06:44:39;;;;;;;8.88;6.22;;;15.50;99.90;;;;;;6194400;23;20298;-89
2021/10/20 06:47:05;;;;;;;7.93;6.03;;;15.50;99.90;;;;;;6196320;23;20011;-90
2021/10/20 06:49:31;;;;;;;6.82;5.53;;;15.60;99.90;;;;;;6220731;23;20404;-89
2021/10/20 06:51:57;;;;;;;7.47;5.63;;;15.60;99.90;;;;;;6220512;23;20024;-88
2021/10/20 06:54:23;;;;;;;9.45;6.13;;;15.60;99.90;;;;;;6221199;23;20058;-88
2021/10/20 06:56:53;;;;;;;8.38;5.65;;;15.60;99.90;;;;;;6220766;23;20001;-89
2021/10/20 06:59:26;;;;;;;7.47;6.03;;;15.60;99.90;;;;;;6221266;23;20015;-88
2021/10/20 07:01:53;;;;;;;7.00;5.70;;;15.60;99.90;;;;;;6166258;23;20012;-88
2021/10/20 07:04:19;;;;;;;7.78;5.47;;;15.70;99.90;;;;;;6219435;23;20011;-89
2021/10/20 07:06:49;;;;;;;7.30;5.35;;;15.70;99.90;;;;;;6196497;23;20026;-89
2021/10/20 07:09:15;;;;;;;7.80;5.68;;;15.70;99.90;;;;;;6221390;23;20082;-88
2021/10/20 07:11:42;;;;;;;7.63;5.43;;;15.70;99.90;;;;;;6220680;23;20405;-88
2021/10/20 07:14:07;;;;;;;7.10;5.68;;;15.70;99.90;;;;;;6195346;23;20039;-88
2021/10/20 07:16:34;;;;;;;7.82;5.10;;;15.70;99.90;;;;;;6220463;23;20328;-89
2021/10/20 07:19:05;;;;;;;6.82;5.20;;;15.80;99.90;;;;;;6247272;23;19992;-89
2021/10/20 07:21:32;;;;;;;6.97;5.13;;;15.80;99.90;;;;;;6220744;23;20000;-89
2021/10/20 07:23:58;;;;;;;6.85;5.00;;;15.80;99.90;;;;;;6195671;23;20007;-89
2021/10/20 07:26:25;;;;;;;8.30;5.55;;;15.80;99.90;;;;;;6221129;23;20059;-88
2021/10/20 07:28:51;;;;;;;7.22;5.13;;;15.80;99.90;;;;;;6221311;23;20423;-88
2021/10/20 07:31:29;;;;;;;9.70;5.90;;;15.90;99.90;;;;;;6221091;23;20087;-90
2021/10/20 07:34:01;;;;;;;9.02;6.18;;;15.90;99.90;;;;;;6166668;23;20413;-89
2021/10/20 07:36:27;;;;;;;7.45;5.97;;;16.00;99.90;;;;;;6203936;23;20036;-89
2021/10/20 07:38:54;;;;;;;7.80;6.10;;;15.90;99.90;;;;;;6188500;23;20083;-88
2021/10/20 07:41:20;;;;;;;8.95;6.00;;;15.80;99.90;;;;;;6217218;23;20027;-88
2021/10/20 07:43:46;;;;;;;7.25;5.82;;;15.70;99.90;;;;;;6218497;23;20036;-90
2021/10/20 07:46:13;;;;;;;9.10;5.95;;;15.70;99.90;;;;;;6218358;23;20094;-89
2021/10/20 07:48:38;;;;;;;6.95;5.85;;;15.70;99.90;;;;;;6219388;23;20071;-89
2021/10/20 07:51:05;;;;;;;8.93;6.20;;;15.80;99.90;;;;;;6194535;23;20016;-89
2021/10/20 07:53:31;;;;;;;7.95;6.45;;;15.80;99.90;;;;;;6243549;23;19996;-89
2021/10/20 07:55:57;;;;;;;9.38;6.13;;;15.70;99.90;;;;;;6218711;23;20078;-91
2021/10/20 07:58:24;;;;;;;7.70;6.40;;;15.60;99.90;;;;;;6245447;23;19992;-90
2021/10/20 08:00:54;;;;;;;9.02;6.57;;;15.60;99.90;;;;;;6193739;23;20000;-90
2021/10/20 08:03:20;;;;;;;7.88;6.32;;;15.50;99.90;;;;;;6244582;23;20107;-88
2021/10/20 08:05:47;;;;;;;8.32;6.70;;;15.50;99.90;;;;;;6219529;23;20006;-89
2021/10/20 08:08:13;;;;;;;9.30;6.68;;;15.40;99.90;;;;;;6244677;23;20012;-89
2021/10/20 08:10:41;;;;;;;8.55;6.30;;;15.40;99.90;;;;;;6217394;23;20002;-90
2021/10/20 08:13:07;;;;;;;9.35;7.13;;;15.50;99.90;;;;;;6218304;23;19996;-90
2021/10/20 08:15:35;;;;;;;9.38;7.35;;;15.50;99.90;;;;;;6217395;23;20008;-89
2021/10/20 08:18:04;;;;;;;9.40;6.65;;;15.60;99.90;;;;;;6218550;23;20007;-90
2021/10/20 08:20:34;;;;;;;8.43;6.55;;;15.60;99.90;;;;;;6218955;23;19997;-90
2021/10/20 08:23:02;;;;;;;10.00;7.53;;;15.70;99.90;;;;;;6219978;23;20416;-89
2021/10/20 08:25:30;;;;;;;9.13;6.97;;;15.70;99.90;;;;;;6221243;23;20008;-89
2021/10/20 08:27:56;;;;;;;8.40;6.45;;;15.70;99.90;;;;;;6246092;23;20456;-90
2021/10/20 08:30:23;;;;;;;11.80;7.93;;;15.70;99.90;;;;;;6219582;23;20000;-89
2021/10/20 08:32:53;;;;;;;8.20;6.30;;;15.60;99.90;;;;;;6221859;23;20000;-90
2021/10/20 08:35:19;;;;;;;8.55;6.75;;;15.60;99.90;;;;;;6220629;23;20455;-90
2021/10/20 08:37:48;;;;;;;9.30;6.22;;;15.60;99.90;;;;;;6220886;23;19992;-90
2021/10/20 08:40:19;;;;;;;8.43;7.07;;;15.70;99.90;;;;;;6219990;23;20051;-89
2021/10/20 08:42:45;;;;;;;9.13;7.22;;;15.80;99.90;;;;;;6196592;23;20001;-90
2021/10/20 08:45:12;;;;;;;9.30;7.47;;;15.90;99.90;;;;;;6220181;23;20058;-89
2021/10/20 08:47:42;;;;;;;8.52;7.30;;;16.00;99.90;;;;;;6220537;23;20004;-89
2021/10/20 08:50:09;;;;;;;9.10;7.43;;;16.00;99.90;;;;;;6220512;23;19992;-91
2021/10/20 08:52:35;;;;;;;9.20;7.53;;;16.10;99.90;;;;;;6219347;23;20039;-90
2021/10/20 08:55:02;;;;;;;10.65;7.50;;;16.10;99.90;;;;;;6192973;23;20047;-90
2021/10/20 08:57:28;;;;;;;11.63;8.85;;;16.20;99.90;;;;;;6220154;23;20282;-88
2021/10/20 09:00:00;;;;;;;10.48;8.38;;;16.40;99.90;;;;;;6219947;23;20003;-89
2021/10/20 09:02:27;;;;;;;10.02;7.20;;;16.60;99.90;;;;;;6220618;23;20011;-89
2021/10/20 09:04:55;;;;;;;11.38;8.50;;;17.00;99.90;;;;;;6246458;23;20015;-89
2021/10/20 09:07:21;;;;;;;8.75;7.18;;;17.50;99.90;;;;;;6195439;23;19996;-88
2021/10/20 09:09:53;;;;;;;8.85;6.68;;;17.90;99.90;;;;;;6246715;23;20001;-89
2021/10/20 09:12:30;;;;;;;7.95;6.47;;;18.00;99.90;;;;;;6220160;23;20055;-88
2021/10/20 09:15:07;;;;;;;7.72;6.72;;;18.40;99.90;;;;;;6194685;23;20348;-88
2021/10/20 09:18:10;;;;;;;8.63;6.55;;;18.20;99.90;;;;;;6219849;23;20051;-89
2021/10/20 09:20:39;;;;;;;7.97;6.35;;;17.90;99.90;;;;;;6195679;23;20004;-88
2021/10/20 09:23:20;;;;;;;7.32;6.53;;;17.60;99.90;;;;;;6219519;23;19996;-89
2021/10/20 09:25:58;;;;;;;9.38;6.90;;;17.40;99.90;;;;;;6245170;23;20118;-89
2021/10/20 09:28:33;;;;;;;7.80;6.82;;;17.20;99.90;;;;;;6249416;23;20460;-88
2021/10/20 09:31:10;;;;;;;9.20;7.43;;;17.20;99.90;;;;;;6247065;23;20018;-89
2021/10/20 09:34:07;;;;;;;8.32;7.10;;;17.20;99.90;;;;;;6242166;23;20008;-89
2021/10/20 09:36:35;;;;;;;8.95;7.53;;;17.20;99.90;;;;;;6244296;22;20012;-90
2021/10/20 09:39:03;;;;;;;9.35;7.13;;;17.10;99.90;;;;;;6220023;23;20396;-87
2021/10/20 09:41:30;;;;;;;10.00;7.13;;;17.20;99.90;;;;;;6220036;23;20000;-90
2021/10/20 09:43:57;;;;;;;11.48;7.35;;;17.20;99.90;;;;;;6246692;23;20012;-89
2021/10/20 09:46:42;;;;;;;10.35;7.80;;;17.30;99.90;;;;;;6220617;23;20130;-88
2021/10/20 09:49:22;;;;;;;9.45;7.55;;;17.40;99.90;;;;;;6196856;23;20005;-88
2021/10/20 09:51:49;;;;;;;10.27;7.97;;;17.40;99.90;;;;;;6246270;23;20002;-89
2021/10/20 09:54:21;;;;;;;11.48;8.07;;;17.40;99.90;;;;;;6220598;23;20007;-91
2021/10/20 09:57:00;;;;;;;10.57;7.75;;;17.40;99.90;;;;;;6247280;23;20051;-89
2021/10/20 09:59:30;;;;;;;11.35;7.70;;;17.40;99.90;;;;;;6195707;23;20046;-91
2021/10/20 10:01:57;;;;;;;9.82;8.02;;;17.40;99.90;;;;;;6194992;23;20142;-89
2021/10/20 10:04:22;;;;;;;10.20;8.25;;;17.40;99.90;;;;;;6194611;23;20074;-87
2021/10/20 10:06:49;;;;;;;11.55;7.53;;;17.60;99.90;;;;;;6195465;23;20099;-89
2021/10/20 10:09:15;;;;;;;8.52;7.63;;;18.30;99.90;;;;;;6219249;23;20075;-88
2021/10/20 10:11:55;;;;;;;9.23;7.55;;;18.90;99.90;;;;;;6220150;23;20008;-88
2021/10/20 10:14:29;;;;;;;8.80;7.05;;;19.10;99.90;;;;;;6221913;23;20008;-89
2021/10/20 10:17:00;;;;;;;9.38;7.53;;;19.00;99.90;;;;;;6219410;23;20036;-88
2021/10/20 10:19:40;;;;;;;8.60;7.40;;;18.80;99.90;;;;;;6221145;23;20003;-88
2021/10/20 10:22:19;;;;;;;9.55;6.50;;;18.60;99.90;;;;;;6220330;23;20008;-89
2021/10/20 10:24:53;;;;;;;8.55;7.00;;;18.40;99.90;;;;;;6246082;23;20090;-88
2021/10/20 10:27:22;;;;;;;9.32;6.90;;;18.20;99.90;;;;;;6213868;23;20011;-89
2021/10/20 10:29:53;;;;;;;8.85;7.20;;;18.00;99.90;;;;;;6164755;23;20279;-89
2021/10/20 10:32:24;;;;;;;8.90;7.45;;;17.80;99.90;;;;;;6217643;23;20066;-86
2021/10/20 10:34:56;;;;;;;8.70;7.13;;;17.80;99.90;;;;;;6220793;23;20012;-89
2021/10/20 10:37:28;;;;;;;7.68;6.72;;;17.70;99.90;;;;;;6220636;23;19999;-87
2021/10/20 10:39:55;;;;;;;9.23;7.00;;;17.60;99.90;;;;;;6219448;23;20000;-87
2021/10/20 10:42:36;;;;;;;10.98;7.07;;;17.50;99.90;;;;;;6193780;23;20008;-87
2021/10/20 10:45:16;;;;;;;9.10;6.75;;;17.50;99.90;;;;;;6244949;23;19996;-88
2021/10/20 10:48:04;;;;;;;8.20;6.35;;;17.50;99.90;;;;;;6194522;23;20008;-86
2021/10/20 10:50:47;;;;;;;8.43;6.50;;;17.50;99.90;;;;;;6245924;23;19999;-88
2021/10/20 10:53:33;;;;;;;9.18;6.70;;;17.50;99.90;;;;;;6244442;23;20003;-86
2021/10/20 10:56:34;;;;;;;7.65;6.85;;;17.60;99.90;;;;;;6220051;23;20089;-87
2021/10/20 10:59:13;;;;;;;8.77;6.40;;;17.60;99.90;;;;;;6217405;23;20008;-87
2021/10/20 11:01:46;;;;;;;7.88;6.28;;;17.60;99.90;;;;;;6219085;23;20313;-87
2021/10/20 11:04:17;;;;;;;7.10;5.97;;;17.60;99.90;;;;;;6225270;23;20027;-89
2021/10/20 11:06:43;;;;;;;7.07;6.38;;;17.70;99.90;;;;;;6245833;23;20000;-88
2021/10/20 11:09:09;;;;;;;10.75;6.97;;;17.70;99.90;;;;;;6245083;23;19993;-87
2021/10/20 11:11:47;;;;;;;7.72;6.03;;;17.70;99.90;;;;;;6244892;23;20409;-88
2021/10/20 11:14:15;;;;;;;6.97;5.80;;;17.60;99.90;;;;;;6193497;23;20004;-89
2021/10/20 11:16:48;;;;;;;10.68;6.63;;;17.70;99.90;;;;;;6193079;23;20011;-89
2021/10/20 11:19:24;;;;;;;9.55;6.70;;;17.70;99.90;;;;;;6191484;23;20007;-89
2021/10/20 11:21:52;;;;;;;8.55;6.15;;;17.70;99.90;;;;;;6194227;23;20347;-88
2021/10/20 11:24:25;;;;;;;7.97;6.65;;;17.80;99.90;;;;;;6216466;23;20007;-89
2021/10/20 11:27:09;;;;;;;6.73;5.90;;;17.80;99.90;;;;;;6193500;23;20356;-89
2021/10/20 11:29:51;;;;;;;7.63;6.22;;;17.80;99.90;;;;;;6194343;23;20086;-89
2021/10/20 11:32:24;;;;;;;8.05;6.30;;;17.80;99.90;;;;;;6195800;23;20392;-90
2021/10/20 11:34:51;;;;;;;13.23;6.78;;;17.80;99.90;;;;;;6164408;23;20071;-91
2021/10/20 11:37:25;;;;;;;7.15;5.82;;;17.70;99.90;;;;;;6164415;23;20408;-88
2021/10/20 11:40:02;;;;;;;7.20;5.90;;;17.80;99.90;;;;;;6189323;23;20352;-90
2021/10/20 11:42:32;;;;;;;7.15;5.72;;;17.80;99.90;;;;;;6188917;23;20001;-90
2021/10/20 11:45:20;;;;;;;7.63;5.57;;;17.90;99.90;;;;;;6191253;23;20000;-90
2021/10/20 11:47:47;;;;;;;8.30;6.45;;;17.90;99.90;;;;;;6189977;23;20082;-90
2021/10/20 11:50:18;;;;;;;9.20;5.90;;;17.90;99.90;;;;;;6208917;23;19996;-88
2021/10/20 11:52:55;;;;;;;6.78;6.03;;;17.90;99.90;;;;;;6188680;23;20028;-87
2021/10/20 11:55:26;;;;;;;9.45;6.50;;;18.00;99.90;;;;;;6216880;23;20036;-88
2021/10/20 11:57:56;;;;;;;;;;;17.90;99.90;;;;;;6217421;23;20286;-87
2021/10/20 12:00:24;;;;;;;7.85;6.05;;;17.80;99.90;;;;;;6190646;23;19895;-89
2021/10/20 12:02:56;;;;;;;7.47;5.47;;;17.70;99.90;;;;;;6190049;23;20091;-89
2021/10/20 12:05:24;;;;;;;8.88;6.45;;;17.70;99.90;;;;;;6163835;23;20005;-90
2021/10/20 12:08:05;;;;;;;9.05;6.25;;;17.70;99.90;;;;;;6187801;23;20139;-88
2021/10/20 12:10:33;;;;;;;8.38;5.93;;;17.70;99.90;;;;;;6214668;23;20011;-87
2021/10/20 12:13:04;;;;;;;7.35;5.45;;;17.70;99.90;;;;;;6188920;23;20065;-89
2021/10/20 12:15:41;;;;;;;8.10;6.30;;;17.70;99.90;;;;;;6215120;23;20079;-89
2021/10/20 12:18:08;;;;;;;9.52;6.32;;;17.80;99.90;;;;;;6187796;23;20096;-88
2021/10/20 12:20:35;;;;;;;8.38;6.18;;;17.70;99.90;;;;;;6188411;23;20087;-88
2021/10/20 12:23:01;;;;;;;6.85;5.40;;;17.70;99.90;;;;;;6188717;23;20087;-88
2021/10/20 12:25:34;;;;;;;7.22;5.60;;;17.70;99.90;;;;;;6215153;23;19997;-88
2021/10/20 12:28:00;;;;;;;8.02;6.10;;;17.60;99.90;;;;;;6162454;23;20004;-87
2021/10/20 12:30:31;;;;;;;9.50;6.20;;;17.50;99.90;;;;;;6188007;23;20005;-87
2021/10/20 12:33:09;;;;;;;8.02;6.95;;;17.40;99.90;;;;;;6189182;23;20004;-88
2021/10/20 12:35:45;;;;;;;8.57;6.20;;;17.40;99.90;;;;;;6199951;23;20091;-89
2021/10/20 12:38:13;;;;;;;11.23;6.03;;;17.50;99.90;;;;;;6216072;23;20001;-88
2021/10/20 12:40:39;;;;;;;9.93;6.93;;;17.50;99.90;;;;;;6192509;23;20068;-87
2021/10/20 12:43:17;;;;;;;7.63;6.53;;;17.50;99.90;;;;;;6217823;23;20012;-89
2021/10/20 12:45:49;;;;;;;8.35;6.57;;;17.60;99.90;;;;;;6194772;23;20031;-88
2021/10/20 12:48:17;;;;;;;8.38;5.93;;;17.70;99.90;;;;;;6245648;23;19996;-87
2021/10/20 12:50:48;;;;;;;7.05;5.68;;;17.70;99.90;;;;;;6217918;23;20007;-87
2021/10/20 12:53:16;;;;;;;6.60;5.63;;;17.70;99.90;;;;;;6245910;23;20397;-87